Time;durP1;ratioP1;P1;durP2;ratioP2;P2;SDS_P1;SDS_P2;PMS_P1;PMS_P2;Temp;Humidity;BMP_temperature;BMP_pressure;BME280_temperature;BME280_humidity;BME280_pressure;Samples;Min_cycle;Max_cycle;Signal;HPM_P1;HPM_P2
2021/04/24 00:02:02;;;;;;;;;32.50;32.00;;;;;;;;3724246;37;21529;-63
2021/04/24 00:04:30;;;;;;;;;32.50;29.75;;;;;;;;3724478;37;18421;-63
2021/04/24 00:06:56;;;;;;;;;33.75;31.75;;;;;;;;3724716;37;21524;-63
2021/04/24 00:09:23;;;;;;;;;31.25;30.50;;;;;;;;3724435;37;21616;-63
2021/04/24 00:11:52;;;;;;;;;32.50;30.50;;;;;;;;3724797;37;21609;-64
2021/04/24 00:14:18;;;;;;;;;34.00;30.75;;;;;;;;3724970;37;21543;-64
2021/04/24 00:16:45;;;;;;;;;30.00;30.00;;;;;;;;3724239;38;21615;-64
2021/04/24 00:19:11;;;;;;;;;33.25;32.25;;;;;;;;3724791;37;21512;-63
2021/04/24 00:21:38;;;;;;;;;31.75;31.25;;;;;;;;3724772;38;21530;-64
2021/04/24 00:24:10;;;;;;;;;31.25;28.25;;;;;;;;3724834;37;18416;-64
2021/04/24 00:26:36;;;;;;;;;32.00;30.75;;;;;;;;3724844;37;21493;-63
2021/04/24 00:29:01;;;;;;;;;31.75;30.00;;;;;;;;3724729;38;21586;-64
2021/04/24 00:31:27;;;;;;;;;28.50;28.50;;;;;;;;3725199;37;18420;-63
2021/04/24 00:33:53;;;;;;;;;25.00;24.00;;;;;;;;3724972;37;18392;-64
2021/04/24 00:54:31;;;;;;;;;27.75;25.75;;;;;;;;3724546;37;21467;-65
2021/04/24 00:56:58;;;;;;;;;32.50;29.75;;;;;;;;3724600;37;21536;-65
2021/04/24 00:59:25;;;;;;;;;32.00;31.00;;;;;;;;3724957;37;18356;-66
2021/04/24 01:01:51;;;;;;;;;34.75;33.00;;;;;;;;3724683;38;21527;-64
2021/04/24 01:04:17;;;;;;;;;32.50;29.00;;;;;;;;3724717;37;21539;-64
2021/04/24 01:06:48;;;;;;;;;26.50;24.75;;;;;;;;3724741;37;18348;-63
2021/04/24 01:09:14;;;;;;;;;32.50;31.00;;;;;;;;3724698;38;21539;-64
2021/04/24 01:11:40;;;;;;;;;37.25;33.75;;;;;;;;3724644;37;21522;-63
2021/04/24 01:14:06;;;;;;;;;30.00;30.00;;;;;;;;3724819;37;18338;-64
2021/04/24 01:16:31;;;;;;;;;30.75;30.25;;;;;;;;3724803;38;18321;-65
2021/04/24 01:18:58;;;;;;;;;29.25;29.00;;;;;;;;3724648;37;18428;-65
2021/04/24 01:21:26;;;;;;;;;30.25;29.75;;;;;;;;3724465;37;18320;-65
2021/04/24 01:23:52;;;;;;;;;30.75;28.50;;;;;;;;3724964;37;21518;-64
2021/04/24 01:26:18;;;;;;;;;29.25;29.25;;;;;;;;3724938;38;21489;-64
2021/04/24 01:28:44;;;;;;;;;29.50;28.50;;;;;;;;3725111;38;18331;-65
2021/04/24 01:31:10;;;;;;;;;29.75;28.75;;;;;;;;3725188;38;18308;-64
2021/04/24 01:33:39;;;;;;;;;32.25;31.25;;;;;;;;3729302;38;21388;-65
2021/04/24 01:36:05;;;;;;;;;30.75;30.75;;;;;;;;3725438;38;21490;-64
2021/04/24 01:38:32;;;;;;;;;29.25;28.75;;;;;;;;3725218;38;18324;-63
2021/04/24 01:40:58;;;;;;;;;30.25;29.25;;;;;;;;3724935;38;21499;-63
2021/04/24 01:43:24;;;;;;;;;33.00;31.75;;;;;;;;3725367;37;21545;-63
2021/04/24 01:45:50;;;;;;;;;30.00;29.75;;;;;;;;3724634;38;18427;-63
2021/04/24 01:48:16;;;;;;;;;33.50;31.00;;;;;;;;3724977;37;21466;-63
2021/04/24 01:50:44;;;;;;;;;30.00;29.00;;;;;;;;3725007;38;18291;-64
2021/04/24 01:53:11;;;;;;;;;34.50;32.25;;;;;;;;3725052;37;18314;-64
2021/04/24 01:55:38;;;;;;;;;29.00;28.00;;;;;;;;3724698;37;21480;-64
2021/04/24 01:58:08;;;;;;;;;34.25;32.50;;;;;;;;3725199;38;21456;-63
2021/04/24 02:00:38;;;;;;;;;31.25;31.25;;;;;;;;3725073;37;21450;-64
2021/04/24 02:03:06;;;;;;;;;35.00;33.50;;;;;;;;3726009;37;21443;-64
2021/04/24 02:05:32;;;;;;;;;34.50;33.50;;;;;;;;3726647;38;21448;-64
2021/04/24 02:08:00;;;;;;;;;31.50;29.75;;;;;;;;3725588;37;21438;-64
2021/04/24 02:10:27;;;;;;;;;36.75;33.50;;;;;;;;3725274;38;21427;-64
2021/04/24 02:12:54;;;;;;;;;31.25;29.75;;;;;;;;3725611;37;21454;-64
2021/04/24 02:15:20;;;;;;;;;35.50;32.25;;;;;;;;3725786;38;21424;-63
2021/04/24 02:17:47;;;;;;;;;38.25;33.75;;;;;;;;3729288;37;21427;-64
2021/04/24 02:20:14;;;;;;;;;29.25;28.50;;;;;;;;3729831;37;18261;-64
2021/04/24 02:22:41;;;;;;;;;31.50;31.50;;;;;;;;3725203;38;21518;-63
2021/04/24 02:25:08;;;;;;;;;32.50;29.50;;;;;;;;3725207;38;21419;-64
2021/04/24 02:27:35;;;;;;;;;32.00;31.75;;;;;;;;3725255;37;21433;-64
2021/04/24 02:30:02;;;;;;;;;33.50;32.00;;;;;;;;3724835;37;21441;-64
2021/04/24 02:32:31;;;;;;;;;35.50;33.00;;;;;;;;3725113;37;21464;-65
2021/04/24 02:34:57;;;;;;;;;34.50;32.75;;;;;;;;3726221;38;21431;-64
2021/04/24 02:37:23;;;;;;;;;36.75;33.00;;;;;;;;3724897;37;21401;-64
2021/04/24 02:39:50;;;;;;;;;33.25;32.25;;;;;;;;3724810;38;21407;-63
2021/04/24 02:42:23;;;;;;;;;33.00;31.25;;;;;;;;3725229;38;18223;-64
2021/04/24 02:44:50;;;;;;;;;32.25;31.50;;;;;;;;3724659;37;21385;-63
2021/04/24 02:47:20;;;;;;;;;31.50;30.25;;;;;;;;3724554;37;21391;-64
2021/04/24 02:49:52;;;;;;;;;36.75;34.25;;;;;;;;3725248;38;21388;-64
2021/04/24 02:52:18;;;;;;;;;35.00;33.50;;;;;;;;3725042;38;21680;-65
2021/04/24 02:54:44;;;;;;;;;34.75;32.00;;;;;;;;3724796;38;21373;-65
2021/04/24 02:57:11;;;;;;;;;29.75;28.50;;;;;;;;3725186;38;18217;-65
2021/04/24 02:59:37;;;;;;;;;31.50;31.00;;;;;;;;3724863;37;21376;-63
2021/04/24 03:02:03;;;;;;;;;26.75;25.50;;;;;;;;3725054;38;21372;-66
2021/04/24 03:04:30;;;;;;;;;28.50;28.50;;;;;;;;3724842;38;18203;-63
2021/04/24 03:06:55;;;;;;;;;31.25;29.75;;;;;;;;3725146;37;18209;-66
2021/04/24 03:09:21;;;;;;;;;33.25;31.75;;;;;;;;3725196;38;21363;-65
2021/04/24 03:11:48;;;;;;;;;34.25;31.25;;;;;;;;3725101;38;18196;-65
2021/04/24 03:14:15;;;;;;;;;35.75;33.50;;;;;;;;3725002;38;18201;-66
2021/04/24 03:16:40;;;;;;;;;31.00;31.00;;;;;;;;3725027;37;21346;-65
2021/04/24 03:19:07;;;;;;;;;32.25;32.00;;;;;;;;3725069;38;21404;-64
2021/04/24 03:21:33;;;;;;;;;29.50;29.50;;;;;;;;3725047;37;18195;-67
2021/04/24 03:23:59;;;;;;;;;29.75;29.50;;;;;;;;3725005;37;21340;-64
2021/04/24 03:26:25;;;;;;;;;34.75;32.50;;;;;;;;3724807;38;21324;-68
2021/04/24 03:28:51;;;;;;;;;34.75;33.25;;;;;;;;3725109;38;18183;-67
2021/04/24 03:31:18;;;;;;;;;34.50;33.25;;;;;;;;3724977;37;21342;-67
2021/04/24 03:33:44;;;;;;;;;42.50;37.00;;;;;;;;3724949;37;21337;-67
2021/04/24 03:36:10;;;;;;;;;39.25;34.50;;;;;;;;3728027;37;18142;-65
2021/04/24 03:38:36;;;;;;;;;35.75;33.50;;;;;;;;3725489;37;18140;-65
2021/04/24 03:41:04;;;;;;;;;37.25;34.25;;;;;;;;3724985;37;21335;-66
2021/04/24 03:43:30;;;;;;;;;39.25;35.00;;;;;;;;3724431;38;21314;-65
2021/04/24 03:45:56;;;;;;;;;39.00;35.50;;;;;;;;3724970;37;21304;-67
2021/04/24 03:48:23;;;;;;;;;42.00;36.00;;;;;;;;3725031;38;21318;-65
2021/04/24 03:50:49;;;;;;;;;43.75;37.00;;;;;;;;3724303;38;21309;-66
2021/04/24 03:53:15;;;;;;;;;46.75;39.25;;;;;;;;3724749;37;18117;-66
2021/04/24 03:55:41;;;;;;;;;40.00;37.00;;;;;;;;3724925;38;18149;-67
2021/04/24 03:58:07;;;;;;;;;44.50;37.00;;;;;;;;3724980;38;18131;-66
2021/04/24 04:00:33;;;;;;;;;43.00;38.00;;;;;;;;3725827;38;21291;-69
2021/04/24 04:03:04;;;;;;;;;43.00;37.50;;;;;;;;3725073;37;18127;-66
2021/04/24 04:05:31;;;;;;;;;43.25;38.25;;;;;;;;3725182;38;18118;-68
2021/04/24 04:07:57;;;;;;;;;41.00;37.00;;;;;;;;3724946;37;21306;-64
2021/04/24 04:10:24;;;;;;;;;41.25;36.25;;;;;;;;3725049;37;21284;-64
2021/04/24 04:12:50;;;;;;;;;39.00;36.25;;;;;;;;3724938;38;21284;-67
2021/04/24 04:15:17;;;;;;;;;37.75;33.75;;;;;;;;3724882;37;21273;-63
2021/04/24 04:17:53;;;;;;;;;31.75;30.50;;;;;;;;3724887;38;21271;-65
2021/04/24 04:20:25;;;;;;;;;40.25;36.00;;;;;;;;3725116;37;21252;-65
2021/04/24 04:22:51;;;;;;;;;43.50;38.00;;;;;;;;3725122;37;21293;-67
2021/04/24 04:25:17;;;;;;;;;40.75;35.75;;;;;;;;3724884;38;21241;-63
2021/04/24 04:27:43;;;;;;;;;46.00;37.50;;;;;;;;3724869;38;18071;-64
2021/04/24 04:30:13;;;;;;;;;38.50;35.50;;;;;;;;3724922;37;21262;-64
2021/04/24 04:32:39;;;;;;;;;39.00;36.25;;;;;;;;3725184;37;20797;-64
2021/04/24 04:35:05;;;;;;;;;38.75;35.75;;;;;;;;3724888;37;21255;-63
2021/04/24 04:37:31;;;;;;;;;37.75;34.75;;;;;;;;3725052;37;21242;-63
2021/04/24 04:39:57;;;;;;;;;45.25;39.00;;;;;;;;3725030;38;21316;-63
2021/04/24 04:42:24;;;;;;;;;40.25;36.00;;;;;;;;3725224;38;18071;-64
2021/04/24 04:44:49;;;;;;;;;40.00;36.50;;;;;;;;3725010;38;21243;-65
2021/04/24 04:47:15;;;;;;;;;41.75;36.50;;;;;;;;3725101;37;21239;-63
2021/04/24 04:49:41;;;;;;;;;44.00;38.00;;;;;;;;3725190;38;18056;-67
2021/04/24 04:52:08;;;;;;;;;45.00;38.50;;;;;;;;3725255;38;18043;-64
2021/04/24 04:54:35;;;;;;;;;47.50;40.25;;;;;;;;3726563;37;18036;-66
2021/04/24 04:57:01;;;;;;;;;47.75;39.75;;;;;;;;3724951;38;21228;-61
2021/04/24 04:59:28;;;;;;;;;35.75;33.25;;;;;;;;3724843;37;21220;-62
2021/04/24 05:01:58;;;;;;;;;45.75;36.50;;;;;;;;3725048;38;18059;-62
2021/04/24 05:04:25;;;;;;;;;39.25;35.25;;;;;;;;3724799;37;21219;-64
2021/04/24 05:06:51;;;;;;;;;31.00;28.50;;;;;;;;3724817;37;21207;-61
2021/04/24 05:09:22;;;;;;;;;33.50;31.00;;;;;;;;3724937;37;18329;-63
2021/04/24 05:11:52;;;;;;;;;29.75;29.00;;;;;;;;3725049;37;18047;-63
2021/04/24 05:14:18;;;;;;;;;30.25;30.00;;;;;;;;3725126;37;21105;-63
2021/04/24 05:16:44;;;;;;;;;32.25;30.25;;;;;;;;3724840;38;21197;-63
2021/04/24 05:19:10;;;;;;;;;23.00;22.00;;;;;;;;3724864;38;18028;-64
2021/04/24 05:21:35;;;;;;;;;17.50;17.00;;;;;;;;3724918;37;18007;-64
2021/04/24 05:24:02;;;;;;;;;20.25;18.00;;;;;;;;3724983;37;18004;-66
2021/04/24 05:26:28;;;;;;;;;19.50;19.50;;;;;;;;3724849;37;18023;-67
2021/04/24 05:28:53;;;;;;;;;20.75;20.75;;;;;;;;3724700;37;21042;-67
2021/04/24 05:31:19;;;;;;;;;21.50;20.00;;;;;;;;3725034;38;18023;-66
2021/04/24 05:33:46;;;;;;;;;19.50;17.75;;;;;;;;3724922;37;17990;-66
2021/04/24 05:36:19;;;;;;;;;20.00;20.00;;;;;;;;3725045;38;18004;-66
2021/04/24 05:38:45;;;;;;;;;15.75;15.75;;;;;;;;3726033;37;21064;-66
2021/04/24 05:41:14;;;;;;;;;14.50;13.75;;;;;;;;3725501;37;21081;-64
2021/04/24 05:43:40;;;;;;;;;18.25;15.50;;;;;;;;3725027;37;21012;-67
2021/04/24 05:46:07;;;;;;;;;19.25;19.25;;;;;;;;3726981;38;21093;-65
2021/04/24 05:48:33;;;;;;;;;17.75;17.75;;;;;;;;3727782;37;18088;-67
2021/04/24 05:50:59;;;;;;;;;14.00;14.00;;;;;;;;3725327;37;21058;-66
2021/04/24 05:53:25;;;;;;;;;18.00;18.00;;;;;;;;3725204;37;17957;-65
2021/04/24 05:55:51;;;;;;;;;12.75;12.75;;;;;;;;3725044;37;21061;-64
2021/04/24 05:58:21;;;;;;;;;16.75;15.75;;;;;;;;3725254;38;21031;-65
2021/04/24 06:00:50;;;;;;;;;11.25;11.00;;;;;;;;3725153;38;17982;-64
2021/04/24 06:03:16;;;;;;;;;15.00;14.00;;;;;;;;3725140;38;20982;-64
2021/04/24 06:05:42;;;;;;;;;15.00;14.25;;;;;;;;3724945;38;20992;-65
2021/04/24 06:08:07;;;;;;;;;14.50;14.25;;;;;;;;3725122;38;21027;-65
2021/04/24 06:10:33;;;;;;;;;16.25;15.25;;;;;;;;3725388;37;17945;-71
2021/04/24 06:12:59;;;;;;;;;14.00;13.75;;;;;;;;3725068;37;17961;-72
2021/04/24 06:15:25;;;;;;;;;16.00;14.25;;;;;;;;3724820;38;21019;-71
2021/04/24 06:17:51;;;;;;;;;16.50;14.75;;;;;;;;3725564;38;17932;-71
2021/04/24 06:20:17;;;;;;;;;11.25;11.25;;;;;;;;3725466;38;17953;-72
2021/04/24 06:22:50;;;;;;;;;10.50;10.50;;;;;;;;3725242;37;17952;-73
2021/04/24 06:25:17;;;;;;;;;13.75;12.50;;;;;;;;3725318;37;20900;-75
2021/04/24 06:27:44;;;;;;;;;14.00;13.75;;;;;;;;3725109;38;20974;-74
2021/04/24 06:30:11;;;;;;;;;17.50;15.00;;;;;;;;3725148;37;21017;-74
2021/04/24 06:32:37;;;;;;;;;18.75;14.75;;;;;;;;3725236;37;20998;-76
2021/04/24 06:35:05;;;;;;;;;16.25;16.25;;;;;;;;3725184;37;21004;-72
2021/04/24 06:37:33;;;;;;;;;16.25;15.75;;;;;;;;3725379;38;21087;-74
2021/04/24 06:39:59;;;;;;;;;15.50;13.50;;;;;;;;3724744;37;21010;-73
2021/04/24 06:42:24;;;;;;;;;14.50;13.25;;;;;;;;3725228;37;20981;-74
2021/04/24 06:44:50;;;;;;;;;14.25;14.00;;;;;;;;3725429;37;17922;-76
2021/04/24 06:47:16;;;;;;;;;14.00;12.50;;;;;;;;3725200;38;17923;-76
2021/04/24 06:49:42;;;;;;;;;15.50;15.50;;;;;;;;3725357;38;21082;-79
2021/04/24 06:52:08;;;;;;;;;15.25;14.50;;;;;;;;3725400;37;17909;-74
2021/04/24 06:54:34;;;;;;;;;14.50;13.50;;;;;;;;3724901;38;18136;-73
2021/04/24 06:57:03;;;;;;;;;19.50;18.00;;;;;;;;3724451;38;17887;-76
2021/04/24 06:59:29;;;;;;;;;16.50;16.50;;;;;;;;3723856;38;20969;-72
2021/04/24 07:01:58;;;;;;;;;11.75;11.75;;;;;;;;3724622;37;20982;-75
2021/04/24 07:04:24;;;;;;;;;14.50;14.25;;;;;;;;3724757;38;20989;-76
2021/04/24 07:06:50;;;;;;;;;21.00;18.50;;;;;;;;3724614;37;20905;-74
2021/04/24 07:09:16;;;;;;;;;13.25;13.00;;;;;;;;3724662;38;17872;-74
2021/04/24 07:11:43;;;;;;;;;11.50;10.50;;;;;;;;3724073;37;20972;-73
2021/04/24 07:14:10;;;;;;;;;12.75;12.00;;;;;;;;3724193;38;20941;-73
2021/04/24 07:16:37;;;;;;;;;12.25;11.50;;;;;;;;3724189;38;20903;-73
2021/04/24 07:19:04;;;;;;;;;12.25;12.25;;;;;;;;3724848;37;20897;-75
2021/04/24 07:21:30;;;;;;;;;17.50;17.00;;;;;;;;3725041;38;20998;-68
2021/04/24 07:23:56;;;;;;;;;14.00;13.25;;;;;;;;3725332;38;20938;-71
2021/04/24 07:26:23;;;;;;;;;16.00;14.25;;;;;;;;3725026;37;17855;-72
2021/04/24 07:28:49;;;;;;;;;13.25;12.50;;;;;;;;3725805;37;17850;-71
2021/04/24 07:31:16;;;;;;;;;18.25;15.50;;;;;;;;3730294;37;20910;-72
2021/04/24 07:33:42;;;;;;;;;13.50;12.25;;;;;;;;3726413;37;17832;-71
2021/04/24 07:36:08;;;;;;;;;11.00;11.00;;;;;;;;3725420;37;20860;-71
2021/04/24 07:38:33;;;;;;;;;13.75;12.75;;;;;;;;3726178;37;20877;-71
2021/04/24 07:40:59;;;;;;;;;15.50;15.00;;;;;;;;3726446;37;20870;-74
2021/04/24 07:43:25;;;;;;;;;12.25;10.75;;;;;;;;3726994;38;17803;-70
2021/04/24 07:45:51;;;;;;;;;12.00;11.50;;;;;;;;3725525;37;17832;-73
2021/04/24 07:48:16;;;;;;;;;12.00;10.75;;;;;;;;3725420;38;17838;-74
2021/04/24 07:50:43;;;;;;;;;11.50;11.50;;;;;;;;3725510;38;18090;-72
2021/04/24 07:53:09;;;;;;;;;16.25;14.00;;;;;;;;3727587;37;17832;-72
2021/04/24 07:55:35;;;;;;;;;15.25;14.75;;;;;;;;3731208;38;20933;-71
2021/04/24 07:58:03;;;;;;;;;13.00;13.00;;;;;;;;3727494;38;20875;-71
2021/04/24 08:00:29;;;;;;;;;14.50;14.25;;;;;;;;3727565;37;20866;-73
2021/04/24 08:22:35;;;;;;;;;16.00;15.25;;;;;;;;3740881;37;20050;-75
2021/04/24 08:25:05;;;;;;;;;14.25;13.00;;;;;;;;3740849;37;20131;-70
2021/04/24 08:27:34;;;;;;;;;13.25;12.50;;;;;;;;3740538;37;20124;-72
2021/04/24 08:30:10;;;;;;;;;8.50;8.50;;;;;;;;3738774;38;20102;-72
2021/04/24 08:32:40;;;;;;;;;14.00;12.75;;;;;;;;3738139;37;20057;-70
2021/04/24 08:35:11;;;;;;;;;11.00;11.00;;;;;;;;3739847;37;20102;-76
2021/04/24 08:37:39;;;;;;;;;11.00;9.75;;;;;;;;3739654;38;20109;-67
2021/04/24 08:40:06;;;;;;;;;8.00;8.00;;;;;;;;3734755;37;20079;-72
2021/04/24 08:42:33;;;;;;;;;13.75;11.75;;;;;;;;3726800;37;20055;-68
2021/04/24 08:45:14;;;;;;;;;11.75;11.75;;;;;;;;3725736;37;20066;-69
2021/04/24 08:47:42;;;;;;;;;6.75;6.75;;;;;;;;3727868;38;20119;-68
2021/04/24 08:50:08;;;;;;;;;11.75;11.75;;;;;;;;3726141;38;20038;-70
2021/04/24 08:52:34;;;;;;;;;13.00;12.75;;;;;;;;3726132;37;20103;-72
2021/04/24 08:55:01;;;;;;;;;16.50;15.00;;;;;;;;3724363;38;20080;-70
2021/04/24 08:57:30;;;;;;;;;12.50;11.50;;;;;;;;3725031;37;20131;-70
2021/04/24 08:59:56;;;;;;;;;14.00;12.50;;;;;;;;3725367;38;19968;-69
2021/04/24 09:02:22;;;;;;;;;13.50;12.75;;;;;;;;3725449;38;19999;-73
2021/04/24 09:04:48;;;;;;;;;13.25;13.00;;;;;;;;3725692;38;17613;-69
2021/04/24 09:07:14;;;;;;;;;16.75;16.75;;;;;;;;3725633;37;17595;-69
2021/04/24 09:09:55;;;;;;;;;13.50;13.50;;;;;;;;3725161;38;19990;-70
2021/04/24 09:12:34;;;;;;;;;9.75;9.75;;;;;;;;3726068;38;20001;-70
2021/04/24 09:15:10;;;;;;;;;12.00;11.00;;;;;;;;3725028;37;19938;-73
2021/04/24 09:17:55;;;;;;;;;12.25;11.25;;;;;;;;3725050;37;19945;-70
2021/04/24 09:20:26;;;;;;;;;10.00;9.50;;;;;;;;3724471;38;19947;-69
2021/04/24 09:22:59;;;;;;;;;10.50;10.25;;;;;;;;3724434;37;19976;-70
2021/04/24 09:25:32;;;;;;;;;12.00;10.75;;;;;;;;3724140;37;19931;-69
2021/04/24 09:27:58;;;;;;;;;13.00;12.50;;;;;;;;3723756;37;19960;-69
2021/04/24 09:30:30;;;;;;;;;11.50;11.50;;;;;;;;3724221;38;19959;-62
2021/04/24 09:33:01;;;;;;;;;10.00;9.00;;;;;;;;3724378;38;19930;-68
2021/04/24 09:35:37;;;;;;;;;13.00;13.00;;;;;;;;3726010;38;19949;-73
2021/04/24 09:38:09;;;;;;;;;12.25;10.00;;;;;;;;3727060;38;19934;-69
2021/04/24 09:40:39;;;;;;;;;12.25;10.25;;;;;;;;3726914;38;19888;-68
2021/04/24 09:43:07;;;;;;;;;10.00;10.00;;;;;;;;3726395;37;20919;-70
2021/04/24 09:45:38;;;;;;;;;14.00;14.00;;;;;;;;3724841;37;19913;-68
2021/04/24 09:48:05;;;;;;;;;15.00;13.50;;;;;;;;3725170;37;20925;-69
2021/04/24 09:50:37;;;;;;;;;11.00;10.00;;;;;;;;3725012;38;20900;-67
2021/04/24 09:53:12;;;;;;;;;11.25;10.75;;;;;;;;3725499;37;20918;-67
2021/04/24 09:55:38;;;;;;;;;12.75;11.50;;;;;;;;3725317;37;20904;-73
2021/04/24 09:58:04;;;;;;;;;14.00;13.25;;;;;;;;3725209;38;20913;-70
2021/04/24 10:00:31;;;;;;;;;15.50;13.50;;;;;;;;3724894;38;21231;-70
2021/04/24 10:02:59;;;;;;;;;11.75;11.75;;;;;;;;3725063;38;19981;-68
2021/04/24 10:05:24;;;;;;;;;12.25;11.50;;;;;;;;3725282;37;20938;-68
2021/04/24 10:07:52;;;;;;;;;12.50;11.75;;;;;;;;3726635;38;20963;-69
2021/04/24 10:10:38;;;;;;;;;11.00;11.00;;;;;;;;3726845;37;18537;-69
2021/04/24 10:13:08;;;;;;;;;12.75;12.75;;;;;;;;3725327;38;20953;-65
2021/04/24 10:15:46;;;;;;;;;11.50;11.50;;;;;;;;3724681;37;20933;-65
2021/04/24 10:18:13;;;;;;;;;13.75;12.00;;;;;;;;3724485;38;21022;-63
2021/04/24 10:20:40;;;;;;;;;14.50;14.50;;;;;;;;3724362;38;20922;-65
2021/04/24 10:23:08;;;;;;;;;13.50;13.00;;;;;;;;3723892;38;20946;-62
2021/04/24 10:25:35;;;;;;;;;14.25;14.25;;;;;;;;3724246;37;20950;-64
2021/04/24 10:28:01;;;;;;;;;10.75;10.75;;;;;;;;3724562;37;20920;-65
2021/04/24 10:30:28;;;;;;;;;11.00;10.25;;;;;;;;3724679;37;20923;-64
2021/04/24 10:32:55;;;;;;;;;11.75;11.75;;;;;;;;3723569;37;20900;-64
2021/04/24 10:35:27;;;;;;;;;12.50;12.50;;;;;;;;3724422;37;20920;-70
2021/04/24 10:37:54;;;;;;;;;13.25;12.50;;;;;;;;3724991;37;20928;-63
2021/04/24 10:40:20;;;;;;;;;16.00;14.25;;;;;;;;3724799;38;20927;-65
2021/04/24 10:42:52;;;;;;;;;17.25;14.75;;;;;;;;3724068;38;20885;-64
2021/04/24 10:45:31;;;;;;;;;15.75;15.75;;;;;;;;3725071;38;20891;-63
2021/04/24 10:47:59;;;;;;;;;15.00;14.00;;;;;;;;3725036;37;20902;-64
2021/04/24 10:50:45;;;;;;;;;7.75;7.50;;;;;;;;3725077;38;20876;-63
2021/04/24 10:53:36;;;;;;;;;11.00;11.00;;;;;;;;3724702;38;20881;-63
2021/04/24 10:56:02;;;;;;;;;10.00;9.25;;;;;;;;3725049;37;20899;-63
2021/04/24 10:58:29;;;;;;;;;13.50;12.00;;;;;;;;3725052;38;20836;-64
2021/04/24 11:01:01;;;;;;;;;9.25;9.25;;;;;;;;3724478;38;20873;-63
2021/04/24 11:03:40;;;;;;;;;8.75;8.75;;;;;;;;3724705;37;20834;-63
2021/04/24 11:06:16;;;;;;;;;12.50;11.50;;;;;;;;3725058;37;20808;-66
2021/04/24 11:08:42;;;;;;;;;14.00;13.50;;;;;;;;3725245;38;20884;-63
2021/04/24 11:11:18;;;;;;;;;9.00;8.75;;;;;;;;3724894;38;20850;-63
2021/04/24 11:13:46;;;;;;;;;10.50;10.25;;;;;;;;3724824;37;20844;-67
2021/04/24 11:16:13;;;;;;;;;7.50;7.50;;;;;;;;3725228;37;21118;-64
2021/04/24 11:18:40;;;;;;;;;9.00;9.00;;;;;;;;3724955;37;20822;-64
2021/04/24 11:21:23;;;;;;;;;5.75;5.75;;;;;;;;3724616;37;20810;-64
2021/04/24 11:24:07;;;;;;;;;7.00;7.00;;;;;;;;3725042;38;20784;-64
2021/04/24 11:26:54;;;;;;;;;10.50;10.00;;;;;;;;3725370;37;20834;-62
2021/04/24 11:29:37;;;;;;;;;16.75;14.75;;;;;;;;3725032;38;20867;-64
2021/04/24 11:32:08;;;;;;;;;6.75;6.75;;;;;;;;3724437;38;20869;-63
2021/04/24 11:34:37;;;;;;;;;9.50;8.50;;;;;;;;3725351;38;20803;-63
2021/04/24 11:37:35;;;;;;;;;13.25;13.25;;;;;;;;3724527;37;20807;-63
2021/04/24 11:40:26;;;;;;;;;9.00;9.00;;;;;;;;3726254;37;20831;-65
2021/04/24 11:43:03;;;;;;;;;10.25;8.50;;;;;;;;3724348;37;20852;-70
2021/04/24 11:45:47;;;;;;;;;9.00;9.00;;;;;;;;3725179;37;20776;-65
2021/04/24 11:48:17;;;;;;;;;10.75;10.50;;;;;;;;3725271;37;20911;-64
2021/04/24 11:50:44;;;;;;;;;8.00;8.00;;;;;;;;3724780;37;20802;-62
2021/04/24 11:53:14;;;;;;;;;9.50;9.50;;;;;;;;3724644;38;20775;-63
2021/04/24 11:55:46;;;;;;;;;12.00;11.25;;;;;;;;3725148;38;20778;-64
2021/04/24 11:58:12;;;;;;;;;10.75;9.50;;;;;;;;3725371;38;20835;-64
2021/04/24 12:00:39;;;;;;;;;8.75;7.25;;;;;;;;3725247;37;20745;-65
2021/04/24 12:03:06;;;;;;;;;7.00;6.25;;;;;;;;3724453;37;20733;-63
2021/04/24 12:05:40;;;;;;;;;11.00;11.00;;;;;;;;3725118;37;20734;-62
2021/04/24 12:08:06;;;;;;;;;9.25;8.75;;;;;;;;3725148;38;20786;-64
2021/04/24 12:10:33;;;;;;;;;9.00;9.00;;;;;;;;3724903;37;20764;-64
2021/04/24 12:13:11;;;;;;;;;8.00;8.00;;;;;;;;3724890;37;18354;-63
2021/04/24 12:15:38;;;;;;;;;11.75;11.25;;;;;;;;3724434;38;20735;-62
2021/04/24 12:18:07;;;;;;;;;15.25;15.00;;;;;;;;3724685;37;20781;-63
2021/04/24 12:20:37;;;;;;;;;6.75;6.00;;;;;;;;3724727;37;20776;-64
2021/04/24 12:23:04;;;;;;;;;9.75;9.25;;;;;;;;3724669;38;20737;-65
2021/04/24 12:25:31;;;;;;;;;12.25;12.25;;;;;;;;3724798;38;20768;-62
2021/04/24 12:28:01;;;;;;;;;11.25;11.25;;;;;;;;3724934;37;20767;-63
2021/04/24 12:30:28;;;;;;;;;9.50;9.50;;;;;;;;3724400;38;20739;-62
2021/04/24 12:33:06;;;;;;;;;7.75;7.75;;;;;;;;3724420;37;20750;-64
2021/04/24 12:35:42;;;;;;;;;12.50;12.50;;;;;;;;3724623;37;20723;-62
2021/04/24 12:38:12;;;;;;;;;17.25;16.50;;;;;;;;3724866;38;20774;-66
2021/04/24 12:40:46;;;;;;;;;14.75;13.50;;;;;;;;3724605;37;20758;-64
2021/04/24 12:43:13;;;;;;;;;11.75;10.75;;;;;;;;3724500;37;20707;-64
2021/04/24 12:45:42;;;;;;;;;8.00;7.25;;;;;;;;3726993;37;20761;-63
2021/04/24 12:48:34;;;;;;;;;26.00;25.25;;;;;;;;3725043;38;20690;-62
2021/04/24 12:50:59;;;;;;;;;9.25;7.75;;;;;;;;3724730;37;20806;-64
2021/04/24 12:53:30;;;;;;;;;8.00;8.00;;;;;;;;3724590;38;20718;-65
2021/04/24 12:56:03;;;;;;;;;16.00;16.00;;;;;;;;3724837;38;18319;-64
2021/04/24 12:58:33;;;;;;;;;6.00;6.00;;;;;;;;3725051;37;20726;-63
2021/04/24 13:01:07;;;;;;;;;6.50;6.50;;;;;;;;3724969;37;20686;-63
2021/04/24 13:03:34;;;;;;;;;8.75;8.25;;;;;;;;3725040;38;20673;-64
2021/04/24 13:06:34;;;;;;;;;7.00;6.50;;;;;;;;3724918;38;20696;-64
2021/04/24 13:09:04;;;;;;;;;12.25;12.25;;;;;;;;3724995;38;20701;-64
2021/04/24 13:11:41;;;;;;;;;4.50;4.25;;;;;;;;3725026;38;20659;-64
2021/04/24 13:14:08;;;;;;;;;5.00;5.00;;;;;;;;3725138;37;20662;-61
2021/04/24 13:16:49;;;;;;;;;7.25;6.75;;;;;;;;3725079;38;20693;-62
2021/04/24 13:19:17;;;;;;;;;5.25;4.75;;;;;;;;3725378;38;20668;-63
2021/04/24 13:21:44;;;;;;;;;8.25;8.25;;;;;;;;3725257;37;20703;-63
2021/04/24 13:24:17;;;;;;;;;5.25;5.25;;;;;;;;3725156;37;20650;-63
2021/04/24 13:26:56;;;;;;;;;9.75;9.00;;;;;;;;3725257;37;20640;-63
2021/04/24 13:29:24;;;;;;;;;7.75;7.75;;;;;;;;3724730;37;20682;-65
2021/04/24 13:32:18;;;;;;;;;7.50;7.25;;;;;;;;3725327;38;20631;-62
2021/04/24 13:34:45;;;;;;;;;9.75;9.25;;;;;;;;3725232;38;20664;-63
2021/04/24 13:37:23;;;;;;;;;9.75;9.75;;;;;;;;3725343;38;20634;-64
2021/04/24 13:39:56;;;;;;;;;5.25;5.25;;;;;;;;3725516;37;20605;-62
2021/04/24 13:42:53;;;;;;;;;6.00;6.00;;;;;;;;3725957;38;20656;-69
2021/04/24 13:45:20;;;;;;;;;4.00;4.00;;;;;;;;3725391;38;20631;-63
2021/04/24 13:48:12;;;;;;;;;4.00;4.00;;;;;;;;3725515;37;20694;-63
2021/04/24 13:50:38;;;;;;;;;7.25;6.25;;;;;;;;3725322;38;20650;-64
2021/04/24 13:53:12;;;;;;;;;8.50;8.50;;;;;;;;3725045;37;20595;-64
2021/04/24 13:55:39;;;;;;;;;10.50;10.50;;;;;;;;3725104;37;18246;-64
2021/04/24 13:58:09;;;;;;;;;7.75;5.00;;;;;;;;3725116;37;20639;-63
2021/04/24 14:00:36;;;;;;;;;3.75;3.25;;;;;;;;3724995;37;20641;-62
2021/04/24 14:03:02;;;;;;;;;21.00;20.25;;;;;;;;3725082;38;20612;-64
2021/04/24 14:05:34;;;;;;;;;7.25;7.00;;;;;;;;3724991;37;20665;-62
2021/04/24 14:08:00;;;;;;;;;8.75;5.75;;;;;;;;3725474;37;20587;-63
2021/04/24 14:10:26;;;;;;;;;5.00;5.00;;;;;;;;3725185;37;20608;-63
2021/04/24 14:12:56;;;;;;;;;6.00;5.00;;;;;;;;3725210;38;18209;-65
2021/04/24 14:15:22;;;;;;;;;4.00;3.25;;;;;;;;3725094;37;20623;-65
2021/04/24 14:17:48;;;;;;;;;6.00;5.00;;;;;;;;3725239;37;20578;-61
2021/04/24 14:20:15;;;;;;;;;7.75;6.25;;;;;;;;3724968;37;20597;-65
2021/04/24 14:22:41;;;;;;;;;5.00;5.00;;;;;;;;3725170;37;20601;-65
2021/04/24 14:25:08;;;;;;;;;10.50;9.75;;;;;;;;3725062;37;20585;-63
2021/04/24 14:27:39;;;;;;;;;4.75;4.75;;;;;;;;3725029;37;18177;-63
2021/04/24 14:30:06;;;;;;;;;6.00;6.00;;;;;;;;3725311;37;20585;-62
2021/04/24 14:32:32;;;;;;;;;5.00;5.00;;;;;;;;3725101;37;20564;-64
2021/04/24 14:34:57;;;;;;;;;3.50;3.50;;;;;;;;3725114;37;20570;-63
2021/04/24 14:37:23;;;;;;;;;9.75;9.75;;;;;;;;3724971;38;18199;-64
2021/04/24 14:39:49;;;;;;;;;5.00;5.00;;;;;;;;3725119;38;18167;-64
2021/04/24 14:42:17;;;;;;;;;5.75;5.00;;;;;;;;3725244;37;18171;-62
2021/04/24 14:44:42;;;;;;;;;4.75;4.00;;;;;;;;3725033;37;18167;-62
2021/04/24 14:47:08;;;;;;;;;6.25;5.25;;;;;;;;3724717;37;20551;-63
2021/04/24 14:49:34;;;;;;;;;4.75;4.00;;;;;;;;3725129;37;18177;-63
2021/04/24 14:52:00;;;;;;;;;6.00;5.00;;;;;;;;3724986;37;18158;-63
2021/04/24 14:54:32;;;;;;;;;4.00;4.00;;;;;;;;3725131;38;18148;-65
2021/04/24 14:56:59;;;;;;;;;6.00;5.50;;;;;;;;3724792;38;18160;-64
2021/04/24 14:59:25;;;;;;;;;5.50;5.25;;;;;;;;3724913;37;20520;-62
2021/04/24 15:01:51;;;;;;;;;4.75;4.00;;;;;;;;3724973;37;20532;-63
2021/04/24 15:04:17;;;;;;;;;5.75;5.75;;;;;;;;3725128;38;20532;-64
2021/04/24 15:06:43;;;;;;;;;5.00;5.00;;;;;;;;3724943;37;20517;-65
2021/04/24 15:09:14;;;;;;;;;5.00;5.00;;;;;;;;3725134;37;20519;-65
2021/04/24 15:11:41;;;;;;;;;7.50;6.75;;;;;;;;3725320;37;18122;-64